Time;durP1;ratioP1;P1;durP2;ratioP2;P2;SDS_P1;SDS_P2;PMS_P1;PMS_P2;Temp;Humidity;BMP_temperature;BMP_pressure;BME280_temperature;BME280_humidity;BME280_pressure;Samples;Min_cycle;Max_cycle;Signal;HPM_P1;HPM_P2
2023/01/06 00:01:12;;;;;;;20.30;3.85;;;14.30;99.90;;;;;;4995051;28;20045;-64
2023/01/06 00:03:38;;;;;;;29.55;3.97;;;14.40;68.10;;;;;;4995891;28;20030;-64
2023/01/06 00:06:06;;;;;;;24.60;4.40;;;15.00;1.00;;;;;;4980470;28;20453;-64
2023/01/06 00:08:33;;;;;;;16.60;3.38;;;14.30;99.90;;;;;;4997349;28;20074;-64
2023/01/06 00:11:06;;;;;;;18.70;3.42;;;14.60;99.90;;;;;;4965054;28;20400;-64
2023/01/06 00:13:32;;;;;;;13.55;2.75;;;14.70;1.00;;;;;;4984920;28;20042;-64
2023/01/06 00:16:03;;;;;;;24.25;3.72;;;12.60;1.00;;;;;;4994423;28;20101;-64
2023/01/06 00:18:28;;;;;;;22.73;3.50;;;12.60;99.90;;;;;;4992966;28;20121;-64
2023/01/06 00:20:56;;;;;;;16.10;2.80;;;12.20;99.90;;;;;;4977399;28;20141;-65
2023/01/06 00:23:22;;;;;;;9.55;2.90;;;12.60;99.90;;;;;;4996525;28;20076;-64
2023/01/06 00:25:49;;;;;;;18.88;2.78;;;12.60;99.90;;;;;;4990770;28;20073;-64
2023/01/06 00:28:14;;;;;;;13.63;2.40;;;12.60;1.00;;;;;;4978750;28;20504;-64
2023/01/06 00:30:40;;;;;;;18.08;3.47;;;12.70;1.00;;;;;;4983014;28;20049;-64
2023/01/06 00:33:06;;;;;;;16.48;3.72;;;12.30;1.00;;;;;;4980297;28;20060;-65
2023/01/06 00:35:31;;;;;;;18.98;3.20;;;12.70;99.90;;;;;;4977603;28;20045;-64
2023/01/06 00:37:57;;;;;;;22.20;2.83;;;12.50;99.90;;;;;;4977945;28;20404;-65
2023/01/06 00:40:22;;;;;;;12.63;2.60;;;12.50;99.90;;;;;;4994417;28;20464;-65
2023/01/06 00:42:48;;;;;;;19.00;3.60;;;12.70;99.90;;;;;;4996387;28;20511;-65
2023/01/06 00:45:14;;;;;;;27.60;3.70;;;12.80;99.90;;;;;;5011687;28;20046;-64
2023/01/06 00:47:39;;;;;;;16.88;3.58;;;12.40;94.10;;;;;;4980717;28;20031;-64
2023/01/06 00:50:05;;;;;;;27.17;3.72;;;12.60;19.60;;;;;;4999061;28;20072;-64
2023/01/06 00:52:31;;;;;;;19.38;2.75;;;12.30;1.00;;;;;;4977284;28;20050;-64
2023/01/06 00:54:57;;;;;;;18.75;2.97;;;12.30;1.00;;;;;;4977320;28;20415;-65
2023/01/06 00:57:22;;;;;;;22.38;4.90;;;12.70;1.00;;;;;;4987383;28;20507;-64
2023/01/06 00:59:48;;;;;;;19.75;3.17;;;12.60;1.00;;;;;;4982197;28;20124;-64
2023/01/06 01:02:13;;;;;;;19.25;2.88;;;12.60;1.00;;;;;;4977026;28;20070;-64
2023/01/06 01:04:39;;;;;;;22.27;3.33;;;12.40;1.00;;;;;;4992723;28;20080;-65
2023/01/06 01:07:04;;;;;;;23.50;4.15;;;12.40;1.00;;;;;;4993796;28;20030;-64
2023/01/06 01:09:30;;;;;;;22.08;3.03;;;12.70;1.00;;;;;;4995099;28;20463;-65
2023/01/06 01:12:10;;;;;;;15.95;3.15;;;12.70;1.00;;;;;;4981148;28;20042;-65
2023/01/06 01:14:46;;;;;;;19.13;3.75;;;12.30;99.90;;;;;;4981313;28;20459;-65
2023/01/06 01:17:13;;;;;;;18.83;3.22;;;12.10;1.00;;;;;;4986512;28;20100;-64
2023/01/06 01:19:39;;;;;;;12.05;2.88;;;12.30;99.90;;;;;;4976645;28;20065;-64
2023/01/06 01:22:05;;;;;;;19.15;3.83;;;12.30;1.00;;;;;;4978761;28;20074;-64
2023/01/06 01:24:31;;;;;;;14.40;3.05;;;12.00;1.00;;;;;;4984659;28;20034;-64
2023/01/06 01:26:57;;;;;;;23.88;3.10;;;12.00;1.00;;;;;;4977405;28;20033;-65
2023/01/06 01:29:22;;;;;;;21.40;3.10;;;12.50;1.00;;;;;;4992862;28;20038;-64
2023/01/06 01:31:48;;;;;;;10.77;2.53;;;12.50;1.00;;;;;;4981920;28;20423;-64
2023/01/06 01:34:15;;;;;;;11.13;3.05;;;12.90;99.90;;;;;;4980141;28;20530;-64
2023/01/06 01:36:42;;;;;;;11.13;2.30;;;12.80;99.90;;;;;;4998993;28;20484;-64
2023/01/06 01:39:09;;;;;;;21.02;2.95;;;12.80;99.90;;;;;;4981271;28;20050;-64
2023/01/06 01:41:35;;;;;;;14.02;2.30;;;12.70;98.70;;;;;;4992751;28;20042;-64
2023/01/06 01:44:39;;;;;;;16.80;2.55;;;12.80;7.10;;;;;;4977725;28;20455;-64
2023/01/06 01:47:05;;;;;;;17.38;3.15;;;13.00;1.00;;;;;;4935749;28;20396;-64
2023/01/06 01:49:35;;;;;;;14.60;2.75;;;13.10;1.00;;;;;;4987797;28;20096;-64
2023/01/06 01:52:01;;;;;;;14.52;2.72;;;12.80;1.00;;;;;;4995207;28;20038;-64
2023/01/06 01:54:29;;;;;;;18.65;2.92;;;12.80;99.90;;;;;;4988987;28;20122;-64
2023/01/06 01:56:59;;;;;;;16.08;2.83;;;13.30;99.90;;;;;;4968244;28;20125;-64
2023/01/06 01:59:30;;;;;;;16.23;3.40;;;13.10;99.90;;;;;;4988441;28;20125;-64
2023/01/06 02:01:56;;;;;;;12.65;2.90;;;12.80;99.90;;;;;;4976333;28;20046;-65
2023/01/06 02:04:24;;;;;;;12.13;2.50;;;12.90;99.90;;;;;;4994012;28;20121;-64
2023/01/06 02:06:50;;;;;;;10.55;2.45;;;13.10;99.90;;;;;;4988857;28;20068;-64
2023/01/06 02:09:43;;;;;;;7.05;2.40;;;13.00;94.00;;;;;;4976620;28;20103;-64
2023/01/06 02:12:09;;;;;;;12.73;2.08;;;12.70;54.00;;;;;;4983509;28;20559;-64
2023/01/06 02:14:35;;;;;;;9.60;2.67;;;12.90;16.60;;;;;;4994917;28;20038;-64
2023/01/06 02:17:03;;;;;;;7.80;2.08;;;12.80;1.00;;;;;;4989453;28;20107;-64
2023/01/06 02:19:41;;;;;;;8.38;2.35;;;12.80;1.00;;;;;;5008585;28;20038;-65
2023/01/06 02:22:44;;;;;;;12.38;1.98;;;12.70;1.00;;;;;;4992949;28;20042;-64
2023/01/06 02:25:26;;;;;;;9.27;2.03;;;12.80;1.00;;;;;;4987549;28;20511;-64
2023/01/06 02:27:58;;;;;;;9.43;2.35;;;13.10;1.00;;;;;;4994426;28;20125;-64
2023/01/06 02:30:58;;;;;;;13.75;2.58;;;12.90;1.00;;;;;;4992841;28;20117;-65
2023/01/06 02:33:44;;;;;;;9.13;2.20;;;13.00;1.00;;;;;;4993704;28;20054;-64
2023/01/06 02:36:10;;;;;;;;;;;13.00;1.00;;;;;;4994710;28;20041;-64
2023/01/06 02:38:35;;;;;;;7.77;1.83;;;13.00;1.00;;;;;;4980583;28;19932;-64
2023/01/06 02:41:18;;;;;;;8.35;2.45;;;13.60;1.00;;;;;;4959891;28;20054;-64
2023/01/06 02:43:56;;;;;;;6.55;1.90;;;12.90;99.90;;;;;;4977573;28;20048;-64
2023/01/06 02:46:39;;;;;;;7.30;1.75;;;12.90;99.90;;;;;;4987334;28;20096;-64
2023/01/06 02:49:34;;;;;;;7.82;1.98;;;13.20;99.90;;;;;;5003536;28;20038;-64
2023/01/06 02:52:08;;;;;;;10.02;2.42;;;13.20;99.90;;;;;;4974741;28;20073;-65
2023/01/06 02:55:08;;;;;;;7.57;2.35;;;12.90;99.90;;;;;;5007828;28;20046;-64
2023/01/06 02:58:02;;;;;;;8.02;2.17;;;13.00;99.90;;;;;;4977267;28;20070;-64
2023/01/06 03:00:33;;;;;;;17.67;2.60;;;12.90;99.90;;;;;;4982306;28;20065;-64
2023/01/06 03:03:03;;;;;;;7.43;2.42;;;12.80;99.90;;;;;;4989130;28;20407;-64
2023/01/06 03:05:31;;;;;;;8.10;2.63;;;12.80;99.90;;;;;;4994907;28;20037;-64
2023/01/06 03:08:01;;;;;;;8.27;2.50;;;13.00;99.90;;;;;;4986221;28;20042;-64
2023/01/06 03:10:28;;;;;;;8.93;2.10;;;12.90;99.90;;;;;;5007212;28;20050;-64
2023/01/06 03:13:11;;;;;;;8.88;2.17;;;12.80;99.90;;;;;;4995068;28;20064;-64
2023/01/06 03:15:37;;;;;;;6.68;2.65;;;12.80;99.90;;;;;;4975491;28;20054;-64
2023/01/06 03:18:03;;;;;;;7.22;1.98;;;12.80;99.90;;;;;;4976347;28;20035;-65
2023/01/06 03:20:28;;;;;;;7.32;1.92;;;13.10;99.90;;;;;;4974831;28;20045;-65
2023/01/06 03:22:55;;;;;;;3.78;1.80;;;12.80;99.90;;;;;;4974164;28;20042;-65
2023/01/06 03:25:21;;;;;;;13.95;2.55;;;12.80;99.90;;;;;;4976336;28;20035;-64
2023/01/06 03:27:46;;;;;;;11.25;2.50;;;13.10;99.90;;;;;;5004963;28;20049;-65
2023/01/06 03:30:12;;;;;;;6.40;2.50;;;12.90;99.90;;;;;;4976237;28;20046;-65
2023/01/06 03:33:10;;;;;;;10.00;2.40;;;13.10;99.90;;;;;;4975338;28;20034;-65
2023/01/06 03:35:54;;;;;;;7.38;2.42;;;12.80;99.90;;;;;;4971405;28;20061;-64
2023/01/06 03:38:38;;;;;;;5.25;2.20;;;13.10;99.90;;;;;;4979925;28;20042;-65
2023/01/06 03:43:10;;;;;;;6.18;2.72;;;12.90;99.90;;;;;;4992380;28;20042;-64
2023/01/06 03:44:16;;;;;;;7.53;2.97;;;13.10;1.00;;;;;;4983758;28;20123;-64
2023/01/06 03:46:51;;;;;;;5.88;3.22;;;12.90;1.00;;;;;;4974744;28;20313;-65
2023/01/06 03:49:33;;;;;;;5.97;3.15;;;12.90;1.00;;;;;;4975230;28;20045;-65
2023/01/06 03:52:20;;;;;;;7.60;3.85;;;12.60;1.00;;;;;;4985026;28;20129;-64
2023/01/06 03:55:07;;;;;;;7.22;4.32;;;12.60;1.00;;;;;;4980227;28;20412;-64
2023/01/06 03:57:36;;;;;;;9.32;4.47;;;13.00;1.00;;;;;;4985529;28;20038;-64
2023/01/06 04:00:06;;;;;;;11.68;4.63;;;12.90;1.00;;;;;;4989268;28;20038;-65
2023/01/06 04:02:32;;;;;;;5.93;3.90;;;12.90;1.00;;;;;;4978753;28;20042;-64
2023/01/06 04:05:09;;;;;;;8.00;4.38;;;12.80;1.00;;;;;;4988246;28;20038;-65
2023/01/06 04:07:35;;;;;;;6.43;3.90;;;13.10;1.00;;;;;;4997484;28;20049;-65
2023/01/06 04:10:00;;;;;;;9.05;3.90;;;12.90;1.00;;;;;;4986782;28;20492;-64
2023/01/06 04:12:38;;;;;;;8.02;3.58;;;13.10;1.00;;;;;;4981168;28;20077;-64
2023/01/06 04:15:25;;;;;;;5.85;3.45;;;13.10;1.00;;;;;;4985562;28;20088;-65
2023/01/06 04:17:51;;;;;;;6.90;3.42;;;12.90;99.90;;;;;;4992293;28;20042;-65
2023/01/06 04:20:22;;;;;;;7.05;3.40;;;13.10;99.90;;;;;;4984687;28;20103;-65
2023/01/06 04:22:48;;;;;;;11.85;4.43;;;13.10;99.90;;;;;;4992082;28;20091;-64
2023/01/06 04:25:13;;;;;;;4.35;3.10;;;13.00;99.90;;;;;;4978644;28;20121;-64
2023/01/06 04:27:40;;;;;;;11.32;3.90;;;12.80;99.90;;;;;;4982699;28;20040;-65
2023/01/06 04:30:06;;;;;;;7.65;3.65;;;12.80;99.90;;;;;;4976664;28;20076;-65
2023/01/06 04:32:31;;;;;;;7.05;3.85;;;12.90;99.90;;;;;;4978054;28;20088;-65
2023/01/06 04:34:57;;;;;;;8.55;3.55;;;12.70;99.90;;;;;;4977719;28;20069;-64
2023/01/06 04:37:22;;;;;;;9.48;3.80;;;12.70;99.90;;;;;;4977559;28;20523;-64
2023/01/06 04:39:48;;;;;;;9.65;3.40;;;12.80;99.90;;;;;;4982615;28;20050;-64
2023/01/06 04:42:14;;;;;;;6.78;3.50;;;13.00;99.90;;;;;;4979500;28;20045;-64
2023/01/06 04:44:41;;;;;;;7.15;3.45;;;12.90;99.90;;;;;;4995884;28;20135;-65
2023/01/06 04:47:10;;;;;;;5.10;3.25;;;12.80;99.90;;;;;;4972928;28;20408;-65
2023/01/06 04:49:35;;;;;;;5.95;3.30;;;12.80;99.90;;;;;;4984516;28;20140;-64
2023/01/06 04:52:01;;;;;;;8.00;3.60;;;12.90;99.90;;;;;;4977271;28;20082;-65
2023/01/06 04:54:26;;;;;;;7.88;3.17;;;12.90;99.90;;;;;;5009571;28;20562;-65
2023/01/06 04:56:52;;;;;;;6.00;3.20;;;12.80;99.90;;;;;;4982509;28;20038;-65
2023/01/06 04:59:18;;;;;;;8.38;3.92;;;12.90;99.90;;;;;;4990773;28;20041;-64
2023/01/06 05:01:43;;;;;;;6.55;2.50;;;12.90;99.90;;;;;;4987335;28;20085;-64
2023/01/06 05:04:09;;;;;;;6.88;2.67;;;13.00;99.90;;;;;;4978301;28;20084;-64
2023/01/06 05:06:35;;;;;;;6.32;2.72;;;13.10;99.90;;;;;;4995092;28;20034;-64
2023/01/06 05:09:00;;;;;;;8.35;2.65;;;13.00;1.00;;;;;;4984871;28;20050;-65
2023/01/06 05:11:27;;;;;;;4.43;2.90;;;13.00;1.00;;;;;;4982920;28;20096;-64
2023/01/06 05:13:53;;;;;;;7.43;2.45;;;12.90;1.00;;;;;;4980199;28;20381;-64
2023/01/06 05:16:31;;;;;;;5.20;2.47;;;12.90;1.00;;;;;;4976762;28;20038;-64
2023/01/06 05:18:57;;;;;;;11.75;2.97;;;13.10;20.70;;;;;;4980692;28;20058;-64
2023/01/06 05:21:24;;;;;;;6.30;3.13;;;13.10;91.60;;;;;;4976859;28;20038;-64
2023/01/06 05:23:51;;;;;;;4.57;2.70;;;12.70;99.90;;;;;;4976770;28;20122;-64
2023/01/06 05:26:19;;;;;;;4.43;2.17;;;13.10;99.90;;;;;;4983193;28;20038;-64
2023/01/06 05:28:45;;;;;;;6.22;2.53;;;12.90;99.90;;;;;;4979571;28;20049;-65
2023/01/06 05:31:10;;;;;;;4.72;2.35;;;12.60;99.90;;;;;;4991485;28;20048;-64
2023/01/06 05:33:36;;;;;;;2.53;2.10;;;12.60;99.90;;;;;;4978340;28;20447;-64
2023/01/06 05:36:06;;;;;;;7.13;2.67;;;13.10;99.90;;;;;;4991887;28;20041;-64
2023/01/06 05:38:32;;;;;;;10.63;3.65;;;12.60;99.90;;;;;;4987320;28;20081;-64
2023/01/06 05:40:58;;;;;;;8.65;2.92;;;13.20;99.90;;;;;;4980212;28;20081;-64
2023/01/06 05:43:24;;;;;;;5.18;2.53;;;12.90;99.90;;;;;;4983974;28;20100;-64
2023/01/06 05:45:50;;;;;;;7.15;2.38;;;12.80;99.90;;;;;;4977496;28;20563;-64
2023/01/06 05:48:16;;;;;;;4.10;2.40;;;13.00;99.90;;;;;;4995422;28;20058;-64
2023/01/06 05:50:41;;;;;;;3.28;2.20;;;12.50;99.90;;;;;;5008412;28;20042;-64
2023/01/06 05:53:07;;;;;;;6.28;2.25;;;12.80;1.00;;;;;;4993888;28;20052;-64
2023/01/06 05:55:33;;;;;;;5.68;2.05;;;12.80;1.00;;;;;;4986479;28;20120;-64
2023/01/06 05:57:58;;;;;;;5.20;2.22;;;13.00;1.00;;;;;;4978476;28;20031;-64
2023/01/06 06:00:24;;;;;;;3.78;2.10;;;13.00;1.00;;;;;;4985397;28;20100;-63
2023/01/06 06:02:49;;;;;;;4.38;2.22;;;13.30;99.90;;;;;;4983416;28;20069;-63
2023/01/06 06:05:15;;;;;;;4.30;1.88;;;13.10;99.90;;;;;;4976074;28;20381;-64
2023/01/06 06:07:41;;;;;;;5.07;2.05;;;13.30;99.90;;;;;;4985026;28;20514;-64
2023/01/06 06:10:08;;;;;;;6.97;2.17;;;13.10;99.90;;;;;;4977657;28;20085;-64
2023/01/06 06:12:34;;;;;;;6.18;2.50;;;13.10;99.90;;;;;;4998105;28;20080;-64
2023/01/06 06:14:59;;;;;;;8.02;2.08;;;12.70;99.90;;;;;;4993184;28;20046;-63
2023/01/06 06:17:25;;;;;;;6.70;1.95;;;12.90;99.90;;;;;;4975818;28;20451;-64
2023/01/06 06:19:50;;;;;;;12.13;2.50;;;12.80;99.90;;;;;;4974671;28;20574;-63
2023/01/06 06:22:16;;;;;;;8.73;2.75;;;12.90;99.90;;;;;;4974450;28;20069;-65
2023/01/06 06:24:41;;;;;;;10.13;2.25;;;13.20;1.00;;;;;;4975876;28;20034;-64
2023/01/06 06:27:07;;;;;;;12.73;2.95;;;13.40;1.00;;;;;;4975133;28;20389;-64
2023/01/06 06:29:33;;;;;;;11.93;2.65;;;13.40;1.00;;;;;;4992864;28;20443;-63
2023/01/06 06:31:58;;;;;;;17.95;3.13;;;13.20;4.70;;;;;;4975877;28;20408;-64
2023/01/06 06:34:24;;;;;;;16.08;3.13;;;13.00;23.90;;;;;;4975613;28;20064;-63
2023/01/06 06:36:49;;;;;;;24.48;4.47;;;13.30;37.80;;;;;;4983411;28;20038;-64
2023/01/06 06:39:15;;;;;;;28.13;5.32;;;13.50;21.90;;;;;;4992796;28;20050;-63
2023/01/06 06:41:40;;;;;;;22.40;3.33;;;12.90;1.00;;;;;;4986663;28;20042;-64
2023/01/06 06:44:06;;;;;;;13.43;2.67;;;12.90;99.90;;;;;;4993364;28;20038;-64
2023/01/06 06:46:32;;;;;;;15.13;3.35;;;12.80;43.60;;;;;;4990884;28;20079;-63
2023/01/06 06:48:57;;;;;;;19.25;3.15;;;12.50;1.00;;;;;;4975109;28;20042;-64
2023/01/06 06:51:23;;;;;;;21.05;3.72;;;12.10;1.00;;;;;;4988389;28;20100;-64
2023/01/06 06:53:49;;;;;;;21.30;3.47;;;12.20;99.90;;;;;;4975146;28;20411;-64
2023/01/06 06:56:16;;;;;;;12.60;2.88;;;12.00;99.90;;;;;;4989281;28;20065;-63
2023/01/06 06:58:42;;;;;;;14.95;2.70;;;12.00;99.90;;;;;;4993056;28;20046;-63
2023/01/06 07:01:10;;;;;;;16.35;3.00;;;12.00;99.90;;;;;;4988974;28;20384;-63
2023/01/06 07:03:36;;;;;;;22.27;3.95;;;12.00;99.90;;;;;;4992343;28;20035;-63
2023/01/06 07:06:03;;;;;;;25.58;3.42;;;11.80;99.90;;;;;;4996938;28;20036;-64
2023/01/06 07:08:28;;;;;;;25.38;4.10;;;11.70;99.90;;;;;;4981489;28;20057;-63
2023/01/06 07:10:54;;;;;;;22.90;4.03;;;11.70;99.90;;;;;;4962928;28;20407;-65
2023/01/06 07:13:19;;;;;;;24.90;3.67;;;11.60;99.90;;;;;;5003804;28;20038;-64
2023/01/06 07:15:45;;;;;;;52.05;4.53;;;11.80;99.90;;;;;;4985132;28;20049;-64
2023/01/06 07:18:11;;;;;;;20.58;3.47;;;11.70;99.90;;;;;;4996275;28;20038;-64
2023/01/06 07:20:37;;;;;;;20.92;3.20;;;11.80;99.90;;;;;;4983693;28;20039;-64
2023/01/06 07:23:03;;;;;;;18.52;3.60;;;11.60;99.90;;;;;;4979397;28;20096;-64
2023/01/06 07:25:30;;;;;;;34.60;4.03;;;11.70;99.90;;;;;;4975572;28;20030;-64
2023/01/06 07:27:57;;;;;;;31.52;4.30;;;12.20;99.90;;;;;;4980701;28;20576;-64
2023/01/06 07:30:25;;;;;;;20.98;3.80;;;11.90;99.90;;;;;;4978130;28;20046;-64
2023/01/06 07:32:51;;;;;;;24.42;4.05;;;11.90;99.90;;;;;;4994360;28;20042;-64
2023/01/06 07:35:17;;;;;;;30.33;4.05;;;11.80;99.90;;;;;;4983403;28;20030;-65
2023/01/06 07:37:43;;;;;;;27.08;3.90;;;11.70;99.90;;;;;;4983744;28;20125;-64
2023/01/06 07:40:09;;;;;;;28.80;4.28;;;11.80;99.90;;;;;;5001746;28;20144;-64
2023/01/06 07:42:35;;;;;;;24.92;4.15;;;11.50;99.90;;;;;;4984221;28;20192;-65
2023/01/06 07:45:02;;;;;;;37.28;4.15;;;11.70;99.90;;;;;;4983801;28;20077;-64
2023/01/06 07:47:27;;;;;;;20.92;3.80;;;11.60;1.00;;;;;;4983300;28;20126;-64
2023/01/06 07:49:53;;;;;;;29.27;4.55;;;11.60;1.00;;;;;;4984689;28;20545;-65
2023/01/06 07:52:18;;;;;;;35.30;4.93;;;11.40;1.00;;;;;;4968176;28;20038;-64
2023/01/06 07:54:44;;;;;;;35.72;4.35;;;11.60;1.00;;;;;;4986138;28;20068;-64
2023/01/06 07:57:09;;;;;;;25.25;3.85;;;11.60;1.00;;;;;;4976614;28;20066;-64
2023/01/06 07:59:35;;;;;;;32.33;4.95;;;11.50;1.00;;;;;;4985662;28;20494;-64
2023/01/06 08:02:00;;;;;;;33.25;5.10;;;11.50;1.00;;;;;;4990989;28;20384;-64
2023/01/06 08:04:26;;;;;;;33.60;4.93;;;11.40;1.00;;;;;;4977677;28;20488;-64
2023/01/06 08:06:51;;;;;;;23.20;4.07;;;11.40;1.00;;;;;;4980215;28;20092;-64
2023/01/06 08:09:17;;;;;;;35.67;4.75;;;11.20;1.00;;;;;;4988061;28;20038;-64
2023/01/06 08:11:42;;;;;;;30.33;4.03;;;11.20;1.00;;;;;;4977900;28;20042;-64
2023/01/06 08:14:10;;;;;;;29.35;4.10;;;10.80;99.90;;;;;;4999464;28;20108;-64
2023/01/06 08:16:37;;;;;;;23.58;4.03;;;10.80;99.90;;;;;;4991937;28;20093;-64
2023/01/06 08:19:03;;;;;;;20.63;4.43;;;10.80;1.00;;;;;;4989892;28;20492;-65
2023/01/06 08:21:29;;;;;;;31.02;4.45;;;10.90;1.00;;;;;;4983279;28;20080;-65
2023/01/06 08:23:54;;;;;;;33.58;4.80;;;11.30;1.00;;;;;;4982829;28;20034;-64
2023/01/06 08:26:20;;;;;;;21.67;3.92;;;11.50;6.30;;;;;;4982300;28;20038;-64
2023/01/06 08:28:45;;;;;;;18.80;3.30;;;11.20;32.00;;;;;;4988310;28;20042;-64
2023/01/06 08:31:14;;;;;;;22.65;3.45;;;11.20;61.80;;;;;;4971553;28;20042;-64
2023/01/06 08:33:40;;;;;;;24.60;3.92;;;11.60;82.10;;;;;;4981880;28;20053;-64
2023/01/06 08:36:07;;;;;;;23.02;3.00;;;11.50;99.90;;;;;;4982766;28;20484;-63
2023/01/06 08:38:34;;;;;;;21.60;3.33;;;11.40;99.90;;;;;;4998335;28;20665;-64
2023/01/06 08:41:01;;;;;;;24.48;3.60;;;11.50;3.30;;;;;;4982740;28;20140;-65
2023/01/06 08:43:28;;;;;;;11.73;2.63;;;11.40;1.00;;;;;;4995613;28;20107;-65
2023/01/06 08:45:59;;;;;;;18.63;3.10;;;11.30;1.00;;;;;;4992704;28;20038;-65
2023/01/06 08:48:25;;;;;;;17.77;2.67;;;11.40;1.00;;;;;;4985900;28;20042;-64
2023/01/06 08:50:50;;;;;;;14.05;2.47;;;11.60;48.70;;;;;;4981265;28;20369;-65
2023/01/06 08:53:16;;;;;;;20.23;2.97;;;11.80;39.00;;;;;;4979687;28;20570;-65
2023/01/06 08:55:42;;;;;;;17.92;2.90;;;11.90;1.00;;;;;;4984770;28;20181;-65
2023/01/06 08:58:08;;;;;;;21.58;3.25;;;12.10;1.00;;;;;;4976931;28;20396;-65
2023/01/06 09:00:39;;;;;;;12.40;2.60;;;11.90;1.00;;;;;;4984496;28;20038;-65
2023/01/06 09:03:06;;;;;;;18.67;2.70;;;11.90;99.90;;;;;;4984454;28;20300;-65
2023/01/06 09:05:31;;;;;;;14.52;2.58;;;11.80;99.90;;;;;;4979998;28;20034;-65
2023/01/06 09:07:57;;;;;;;15.38;3.17;;;11.80;99.90;;;;;;4987425;28;20046;-65
2023/01/06 09:10:23;;;;;;;14.68;2.70;;;11.90;94.30;;;;;;4979057;28;20396;-65
2023/01/06 09:12:49;;;;;;;15.23;3.13;;;11.70;99.90;;;;;;4983326;28;20046;-65
2023/01/06 09:15:14;;;;;;;20.13;2.70;;;11.80;88.10;;;;;;4981890;28;20056;-65
2023/01/06 09:17:40;;;;;;;15.75;3.08;;;12.20;96.70;;;;;;4978212;28;20073;-65
2023/01/06 09:20:06;;;;;;;19.13;2.75;;;12.50;99.90;;;;;;4984370;28;20662;-65
2023/01/06 09:22:32;;;;;;;17.38;2.95;;;12.20;99.90;;;;;;4982383;28;20038;-65
2023/01/06 09:24:58;;;;;;;23.58;3.58;;;12.40;99.90;;;;;;4998559;28;20117;-65
2023/01/06 09:27:23;;;;;;;16.45;3.20;;;12.50;47.60;;;;;;4982213;28;20038;-65
2023/01/06 09:29:49;;;;;;;14.02;3.03;;;12.50;1.00;;;;;;4986160;28;20046;-65
2023/01/06 09:32:15;;;;;;;18.00;3.35;;;12.40;1.00;;;;;;4997519;28;20033;-65
2023/01/06 09:34:40;;;;;;;20.42;3.00;;;12.20;1.00;;;;;;4979716;28;20043;-65
2023/01/06 09:37:06;;;;;;;18.90;3.72;;;12.20;1.00;;;;;;4981268;28;20045;-65
2023/01/06 09:39:32;;;;;;;26.90;3.78;;;12.10;1.00;;;;;;4964720;28;20361;-65
2023/01/06 09:42:42;;;;;;;21.25;3.33;;;12.40;1.00;;;;;;4983707;28;20065;-65
2023/01/06 09:45:19;;;;;;;24.40;3.45;;;12.40;1.00;;;;;;4987800;28;20060;-65
2023/01/06 09:47:52;;;;;;;21.92;3.03;;;12.40;1.00;;;;;;4990710;28;20042;-65
2023/01/06 09:50:38;;;;;;;17.88;3.35;;;12.30;99.90;;;;;;4982087;28;20133;-65
2023/01/06 09:53:29;;;;;;;19.58;3.22;;;12.20;99.90;;;;;;4980903;28;20037;-65
2023/01/06 09:56:02;;;;;;;20.20;3.47;;;12.00;99.90;;;;;;4977153;28;20385;-65
2023/01/06 09:59:07;;;;;;;12.00;2.92;;;12.00;99.90;;;;;;4980119;28;20132;-65
2023/01/06 10:01:41;;;;;;;18.92;3.63;;;12.30;99.90;;;;;;4944951;28;20137;-65
2023/01/06 10:04:15;;;;;;;18.15;3.33;;;12.60;1.00;;;;;;4986005;28;20042;-66
2023/01/06 10:06:47;;;;;;;19.65;3.83;;;12.70;1.00;;;;;;4999252;28;20092;-65
2023/01/06 10:09:24;;;;;;;20.08;4.00;;;12.70;99.90;;;;;;4977475;28;20050;-65
2023/01/06 10:12:10;;;;;;;21.67;3.78;;;12.70;99.90;;;;;;4979812;28;20095;-66
2023/01/06 10:14:48;;;;;;;17.67;3.80;;;12.80;99.90;;;;;;4999206;28;20046;-66
2023/01/06 10:17:46;;;;;;;29.73;3.67;;;12.70;99.90;;;;;;4981572;28;20053;-66
2023/01/06 10:20:46;;;;;;;21.38;3.97;;;13.00;99.90;;;;;;4976600;28;20049;-66
2023/01/06 10:23:43;;;;;;;21.38;3.85;;;13.10;99.90;;;;;;4979534;28;20108;-66
2023/01/06 10:26:20;;;;;;;20.58;4.28;;;13.10;98.90;;;;;;4972598;28;20046;-66
2023/01/06 10:28:52;;;;;;;20.30;3.78;;;13.10;50.30;;;;;;4976396;28;20074;-66
2023/01/06 10:31:21;;;;;;;20.35;4.60;;;13.40;25.00;;;;;;4989184;28;20045;-66
2023/01/06 10:33:55;;;;;;;20.33;3.95;;;12.80;5.70;;;;;;4989146;28;20052;-66
2023/01/06 10:36:40;;;;;;;25.60;3.78;;;12.80;3.80;;;;;;4983138;28;20117;-66
2023/01/06 10:39:16;;;;;;;19.48;3.78;;;13.00;68.90;;;;;;4982325;28;20536;-66
2023/01/06 10:41:49;;;;;;;;;;;13.10;82.30;;;;;;4992478;28;20044;-66
2023/01/06 10:44:16;;;;;;;25.80;4.63;;;13.30;21.30;;;;;;4979537;28;19924;-66
2023/01/06 10:46:44;;;;;;;29.50;4.50;;;13.50;1.30;;;;;;4979901;28;20046;-66
2023/01/06 10:49:20;;;;;;;23.15;3.80;;;13.30;1.00;;;;;;4967098;28;20045;-66
2023/01/06 10:51:53;;;;;;;;;;;13.10;1.00;;;;;;4997058;28;20046;-66
2023/01/06 10:54:26;;;;;;;30.83;3.90;;;13.10;1.00;;;;;;4979278;28;19925;-66
2023/01/06 10:56:58;;;;;;;26.05;4.30;;;12.90;1.00;;;;;;4985414;28;20038;-66
2023/01/06 10:59:24;;;;;;;21.83;4.43;;;13.10;1.00;;;;;;4983929;28;20038;-66
2023/01/06 11:01:55;;;;;;;18.33;3.63;;;13.40;1.00;;;;;;4979752;28;20044;-66
2023/01/06 11:04:23;;;;;;;19.58;3.97;;;13.50;1.00;;;;;;5007390;28;20381;-66
2023/01/06 11:07:02;;;;;;;21.58;3.55;;;13.60;1.00;;;;;;4983173;28;20030;-66
2023/01/06 11:09:35;;;;;;;29.35;4.43;;;13.50;1.00;;;;;;4991962;28;20034;-66
2023/01/06 11:12:10;;;;;;;29.48;4.35;;;13.30;1.00;;;;;;4994772;28;20039;-66
2023/01/06 11:14:36;;;;;;;16.17;3.70;;;13.10;1.00;;;;;;4991875;28;20050;-66
2023/01/06 11:17:09;;;;;;;21.60;3.97;;;13.20;1.00;;;;;;4988739;28;20038;-66
2023/01/06 11:19:36;;;;;;;27.25;4.38;;;13.30;1.00;;;;;;4964946;28;20400;-66
2023/01/06 11:22:02;;;;;;;27.40;4.30;;;13.50;1.00;;;;;;4988390;28;20041;-66
2023/01/06 11:24:29;;;;;;;23.23;3.55;;;13.70;1.00;;;;;;4994910;28;20030;-66
2023/01/06 11:26:58;;;;;;;26.95;3.90;;;13.60;1.00;;;;;;4990605;28;20042;-65
2023/01/06 11:29:25;;;;;;;23.23;3.80;;;13.30;1.00;;;;;;4994994;28;20066;-66
2023/01/06 11:31:50;;;;;;;28.85;4.15;;;13.00;1.00;;;;;;4979963;28;20046;-66
2023/01/06 11:34:23;;;;;;;21.05;4.20;;;12.80;1.00;;;;;;4993871;28;20100;-65
2023/01/06 11:36:49;;;;;;;28.08;4.25;;;12.90;1.00;;;;;;4994194;28;20049;-66
2023/01/06 11:39:24;;;;;;;26.63;3.85;;;13.10;1.00;;;;;;5008866;28;20125;-65
2023/01/06 11:41:51;;;;;;;22.35;3.38;;;13.10;1.00;;;;;;4994055;28;20084;-66
2023/01/06 11:44:30;;;;;;;21.50;3.38;;;13.30;1.00;;;;;;4995908;28;20116;-66
2023/01/06 11:46:59;;;;;;;24.92;3.40;;;13.30;99.90;;;;;;4988703;28;20049;-65
2023/01/06 11:49:33;;;;;;;27.83;4.28;;;13.10;99.90;;;;;;4984928;28;20033;-65
2023/01/06 11:52:02;;;;;;;24.48;3.63;;;12.90;99.90;;;;;;4984939;28;20042;-65
2023/01/06 11:54:38;;;;;;;20.60;4.65;;;12.70;99.90;;;;;;4988071;28;20487;-65
2023/01/06 11:57:25;;;;;;;31.08;4.57;;;12.70;1.00;;;;;;4984280;28;20057;-67
2023/01/06 11:59:59;;;;;;;20.85;4.00;;;13.00;1.00;;;;;;4998938;28;20034;-65
2023/01/06 12:03:10;;;;;;;26.30;4.28;;;13.10;1.00;;;;;;4987273;28;20419;-67
2023/01/06 12:05:48;;;;;;;17.40;3.28;;;13.10;1.00;;;;;;4958334;28;20460;-66
2023/01/06 12:08:22;;;;;;;23.65;3.47;;;12.80;99.90;;;;;;4995087;28;20050;-66
2023/01/06 12:10:55;;;;;;;16.42;3.50;;;12.70;99.90;;;;;;4969807;28;20057;-66
2023/01/06 12:13:21;;;;;;;16.42;3.22;;;12.40;99.90;;;;;;4982661;28;20068;-65
2023/01/06 12:15:53;;;;;;;29.45;4.20;;;12.30;1.00;;;;;;4991681;28;20046;-65
2023/01/06 12:18:23;;;;;;;32.97;4.60;;;12.40;1.00;;;;;;4977190;28;20045;-66
2023/01/06 12:20:51;;;;;;;22.15;4.07;;;12.60;1.00;;;;;;4986985;28;20057;-65
2023/01/06 12:23:21;;;;;;;29.45;4.90;;;12.60;1.00;;;;;;5001937;28;20038;-66
2023/01/06 12:25:49;;;;;;;24.63;3.95;;;12.70;1.00;;;;;;4990299;28;20617;-65
2023/01/06 12:28:26;;;;;;;32.25;4.32;;;12.60;1.00;;;;;;4983456;28;20117;-65
2023/01/06 12:31:01;;;;;;;22.95;3.50;;;12.40;1.00;;;;;;4982014;28;20573;-65
2023/01/06 12:33:50;;;;;;;23.25;4.25;;;12.20;1.00;;;;;;4973970;28;20081;-66
2023/01/06 12:36:26;;;;;;;20.88;3.53;;;12.10;1.00;;;;;;4991964;28;20042;-65
2023/01/06 12:39:01;;;;;;;22.20;4.03;;;11.90;1.00;;;;;;4996653;28;20050;-65
2023/01/06 12:41:46;;;;;;;26.77;4.38;;;11.90;1.00;;;;;;4991603;28;20042;-65
2023/01/06 12:44:21;;;;;;;20.70;3.47;;;12.30;1.00;;;;;;5004088;28;20077;-65
2023/01/06 12:47:09;;;;;;;21.83;4.03;;;12.40;1.00;;;;;;4983878;28;20553;-66
2023/01/06 12:49:40;;;;;;;22.67;4.30;;;12.50;1.00;;;;;;4983233;28;20124;-66
2023/01/06 12:52:13;;;;;;;23.13;4.50;;;12.60;1.00;;;;;;4980360;28;20049;-65
2023/01/06 12:54:39;;;;;;;26.27;4.55;;;12.60;1.00;;;;;;4981041;28;20043;-66
2023/01/06 12:57:33;;;;;;;24.17;4.03;;;12.50;1.00;;;;;;4968378;28;20026;-66
2023/01/06 13:00:21;;;;;;;23.80;4.28;;;12.30;1.00;;;;;;4985294;28;20049;-65
2023/01/06 13:03:22;;;;;;;22.25;4.05;;;12.10;1.00;;;;;;4979291;28;20137;-65